sensor_id;sensor_type;location;lat;lon;timestamp;temperature;humidity
62339;DHT22;48368;53.406;6.214;2023-03-31T00:01:19;9.30;99.90
62339;DHT22;48368;53.406;6.214;2023-03-31T00:03:45;9.30;99.90
62339;DHT22;48368;53.406;6.214;2023-03-31T00:06:12;9.30;99.90
62339;DHT22;48368;53.406;6.214;2023-03-31T00:08:42;9.30;99.90
62339;DHT22;48368;53.406;6.214;2023-03-31T00:11:08;9.30;99.90
62339;DHT22;48368;53.406;6.214;2023-03-31T00:13:35;9.30;99.90
62339;DHT22;48368;53.406;6.214;2023-03-31T00:16:09;9.30;99.90
62339;DHT22;48368;53.406;6.214;2023-03-31T00:18:35;9.30;99.90
62339;DHT22;48368;53.406;6.214;2023-03-31T00:21:12;9.30;99.90
62339;DHT22;48368;53.406;6.214;2023-03-31T00:23:39;9.30;99.90
62339;DHT22;48368;53.406;6.214;2023-03-31T00:26:05;9.30;99.90
62339;DHT22;48368;53.406;6.214;2023-03-31T00:28:31;9.20;99.90
62339;DHT22;48368;53.406;6.214;2023-03-31T00:31:01;9.30;99.90
62339;DHT22;48368;53.406;6.214;2023-03-31T00:33:28;9.20;99.90
62339;DHT22;48368;53.406;6.214;2023-03-31T00:35:54;9.30;99.90
62339;DHT22;48368;53.406;6.214;2023-03-31T00:38:20;9.20;99.90
62339;DHT22;48368;53.406;6.214;2023-03-31T00:40:46;9.30;99.90
62339;DHT22;48368;53.406;6.214;2023-03-31T00:43:30;9.20;99.90
62339;DHT22;48368;53.406;6.214;2023-03-31T00:46:14;9.30;99.90
62339;DHT22;48368;53.406;6.214;2023-03-31T00:48:51;9.20;99.90
62339;DHT22;48368;53.406;6.214;2023-03-31T00:51:18;9.20;99.90
62339;DHT22;48368;53.406;6.214;2023-03-31T00:53:51;9.20;99.90
62339;DHT22;48368;53.406;6.214;2023-03-31T00:56:22;9.20;99.90
62339;DHT22;48368;53.406;6.214;2023-03-31T00:58:48;9.20;99.90
62339;DHT22;48368;53.406;6.214;2023-03-31T01:01:20;9.20;99.90
62339;DHT22;48368;53.406;6.214;2023-03-31T01:03:49;9.20;99.90
62339;DHT22;48368;53.406;6.214;2023-03-31T01:06:15;9.10;99.90
62339;DHT22;48368;53.406;6.214;2023-03-31T01:08:45;9.10;99.90
62339;DHT22;48368;53.406;6.214;2023-03-31T01:11:13;9.00;99.90
62339;DHT22;48368;53.406;6.214;2023-03-31T01:13:41;9.00;99.90
62339;DHT22;48368;53.406;6.214;2023-03-31T01:16:08;9.10;99.90
62339;DHT22;48368;53.406;6.214;2023-03-31T01:18:34;9.10;99.90
62339;DHT22;48368;53.406;6.214;2023-03-31T01:21:16;9.00;99.90
62339;DHT22;48368;53.406;6.214;2023-03-31T01:32:38;9.00;99.90
62339;DHT22;48368;53.406;6.214;2023-03-31T01:40:45;8.90;99.90
62339;DHT22;48368;53.406;6.214;2023-03-31T01:43:16;9.00;99.90
62339;DHT22;48368;53.406;6.214;2023-03-31T01:46:22;8.90;99.90
62339;DHT22;48368;53.406;6.214;2023-03-31T01:54:18;8.90;99.90
62339;DHT22;48368;53.406;6.214;2023-03-31T01:57:00;9.00;99.90
62339;DHT22;48368;53.406;6.214;2023-03-31T01:59:40;9.00;99.90
62339;DHT22;48368;53.406;6.214;2023-03-31T02:02:15;9.10;99.90
62339;DHT22;48368;53.406;6.214;2023-03-31T02:04:49;9.10;99.90
62339;DHT22;48368;53.406;6.214;2023-03-31T02:07:20;9.10;99.90
62339;DHT22;48368;53.406;6.214;2023-03-31T02:09:50;9.10;99.90
62339;DHT22;48368;53.406;6.214;2023-03-31T02:12:19;9.10;99.90
62339;DHT22;48368;53.406;6.214;2023-03-31T02:14:48;9.10;99.90
62339;DHT22;48368;53.406;6.214;2023-03-31T02:17:17;9.10;99.90
62339;DHT22;48368;53.406;6.214;2023-03-31T02:19:48;9.10;99.90
62339;DHT22;48368;53.406;6.214;2023-03-31T02:22:16;9.10;99.90
62339;DHT22;48368;53.406;6.214;2023-03-31T02:24:45;9.10;99.90
62339;DHT22;48368;53.406;6.214;2023-03-31T02:27:25;9.10;99.90
62339;DHT22;48368;53.406;6.214;2023-03-31T02:29:55;9.00;99.90
62339;DHT22;48368;53.406;6.214;2023-03-31T02:32:24;9.00;99.90
62339;DHT22;48368;53.406;6.214;2023-03-31T02:34:54;9.00;99.90
62339;DHT22;48368;53.406;6.214;2023-03-31T02:37:20;9.00;99.90
62339;DHT22;48368;53.406;6.214;2023-03-31T02:39:48;9.10;99.90
62339;DHT22;48368;53.406;6.214;2023-03-31T02:42:15;9.10;99.90
62339;DHT22;48368;53.406;6.214;2023-03-31T02:44:41;9.10;99.90
62339;DHT22;48368;53.406;6.214;2023-03-31T02:47:12;9.10;99.90
62339;DHT22;48368;53.406;6.214;2023-03-31T02:49:42;9.10;99.90
62339;DHT22;48368;53.406;6.214;2023-03-31T02:52:38;9.10;99.90
62339;DHT22;48368;53.406;6.214;2023-03-31T02:55:11;9.00;99.90
62339;DHT22;48368;53.406;6.214;2023-03-31T03:10:09;9.00;99.90
62339;DHT22;48368;53.406;6.214;2023-03-31T03:15:26;9.10;99.90
62339;DHT22;48368;53.406;6.214;2023-03-31T03:18:01;9.10;99.90
62339;DHT22;48368;53.406;6.214;2023-03-31T03:20:28;9.10;99.90
62339;DHT22;48368;53.406;6.214;2023-03-31T03:22:59;9.20;99.90
62339;DHT22;48368;53.406;6.214;2023-03-31T03:25:37;9.10;99.90
62339;DHT22;48368;53.406;6.214;2023-03-31T03:28:03;9.00;99.90
62339;DHT22;48368;53.406;6.214;2023-03-31T03:30:28;9.10;99.90
62339;DHT22;48368;53.406;6.214;2023-03-31T03:32:54;9.00;99.90
62339;DHT22;48368;53.406;6.214;2023-03-31T03:35:37;9.10;99.90
62339;DHT22;48368;53.406;6.214;2023-03-31T03:38:06;9.00;99.90
62339;DHT22;48368;53.406;6.214;2023-03-31T03:40:31;9.10;99.90
62339;DHT22;48368;53.406;6.214;2023-03-31T03:42:57;9.10;99.90
62339;DHT22;48368;53.406;6.214;2023-03-31T03:45:30;9.10;99.90
62339;DHT22;48368;53.406;6.214;2023-03-31T03:47:56;9.10;99.90
62339;DHT22;48368;53.406;6.214;2023-03-31T03:50:25;9.10;99.90
62339;DHT22;48368;53.406;6.214;2023-03-31T03:52:51;9.10;99.90
62339;DHT22;48368;53.406;6.214;2023-03-31T03:55:16;9.10;99.90
62339;DHT22;48368;53.406;6.214;2023-03-31T03:57:42;9.10;99.90
62339;DHT22;48368;53.406;6.214;2023-03-31T04:00:08;9.10;99.90
62339;DHT22;48368;53.406;6.214;2023-03-31T04:02:38;9.10;99.90
62339;DHT22;48368;53.406;6.214;2023-03-31T04:05:04;9.10;99.90
62339;DHT22;48368;53.406;6.214;2023-03-31T04:07:32;9.10;99.90
62339;DHT22;48368;53.406;6.214;2023-03-31T04:09:58;9.00;99.90
62339;DHT22;48368;53.406;6.214;2023-03-31T04:12:34;9.10;99.90
62339;DHT22;48368;53.406;6.214;2023-03-31T04:15:06;9.10;99.90
62339;DHT22;48368;53.406;6.214;2023-03-31T04:17:32;9.10;99.90
62339;DHT22;48368;53.406;6.214;2023-03-31T04:20:06;9.10;99.90
62339;DHT22;48368;53.406;6.214;2023-03-31T04:22:46;9.20;99.90
62339;DHT22;48368;53.406;6.214;2023-03-31T04:25:26;9.20;99.90
62339;DHT22;48368;53.406;6.214;2023-03-31T04:27:57;9.20;99.90
62339;DHT22;48368;53.406;6.214;2023-03-31T04:30:26;9.20;99.90
62339;DHT22;48368;53.406;6.214;2023-03-31T04:33:01;9.20;99.90
62339;DHT22;48368;53.406;6.214;2023-03-31T04:35:29;9.20;99.90
62339;DHT22;48368;53.406;6.214;2023-03-31T04:38:20;9.20;99.90
62339;DHT22;48368;53.406;6.214;2023-03-31T04:40:49;9.20;99.90
62339;DHT22;48368;53.406;6.214;2023-03-31T04:43:16;9.20;99.90
62339;DHT22;48368;53.406;6.214;2023-03-31T04:45:45;9.20;99.90
62339;DHT22;48368;53.406;6.214;2023-03-31T04:48:11;9.20;99.90
62339;DHT22;48368;53.406;6.214;2023-03-31T04:50:37;9.20;99.90
62339;DHT22;48368;53.406;6.214;2023-03-31T04:53:07;9.20;99.90
62339;DHT22;48368;53.406;6.214;2023-03-31T04:55:35;9.10;99.90
62339;DHT22;48368;53.406;6.214;2023-03-31T04:58:01;9.20;99.90
62339;DHT22;48368;53.406;6.214;2023-03-31T05:00:28;9.20;99.90
62339;DHT22;48368;53.406;6.214;2023-03-31T05:02:54;9.20;99.90
62339;DHT22;48368;53.406;6.214;2023-03-31T05:05:20;9.20;99.90
62339;DHT22;48368;53.406;6.214;2023-03-31T05:07:46;9.10;99.90
62339;DHT22;48368;53.406;6.214;2023-03-31T05:10:13;9.10;99.90
62339;DHT22;48368;53.406;6.214;2023-03-31T05:12:39;9.20;99.90
62339;DHT22;48368;53.406;6.214;2023-03-31T05:15:06;9.20;99.90
62339;DHT22;48368;53.406;6.214;2023-03-31T05:17:33;9.20;99.90
62339;DHT22;48368;53.406;6.214;2023-03-31T05:19:59;9.20;99.90
62339;DHT22;48368;53.406;6.214;2023-03-31T05:22:25;9.20;99.90
62339;DHT22;48368;53.406;6.214;2023-03-31T05:24:51;9.20;99.90
62339;DHT22;48368;53.406;6.214;2023-03-31T05:27:17;9.30;99.90
62339;DHT22;48368;53.406;6.214;2023-03-31T05:29:43;9.20;99.90
62339;DHT22;48368;53.406;6.214;2023-03-31T05:32:09;9.30;99.90
62339;DHT22;48368;53.406;6.214;2023-03-31T05:34:35;9.30;99.90
62339;DHT22;48368;53.406;6.214;2023-03-31T05:37:01;9.30;99.90
62339;DHT22;48368;53.406;6.214;2023-03-31T05:39:26;9.40;99.90
62339;DHT22;48368;53.406;6.214;2023-03-31T05:41:58;9.30;99.90
62339;DHT22;48368;53.406;6.214;2023-03-31T05:44:23;9.40;99.90
62339;DHT22;48368;53.406;6.214;2023-03-31T05:46:51;9.40;99.90
62339;DHT22;48368;53.406;6.214;2023-03-31T05:49:16;9.40;99.90
62339;DHT22;48368;53.406;6.214;2023-03-31T05:51:42;9.40;99.90
62339;DHT22;48368;53.406;6.214;2023-03-31T05:54:08;9.40;99.90
62339;DHT22;48368;53.406;6.214;2023-03-31T05:56:33;9.40;99.90
62339;DHT22;48368;53.406;6.214;2023-03-31T05:59:00;9.40;99.90
62339;DHT22;48368;53.406;6.214;2023-03-31T06:01:26;9.30;99.90
62339;DHT22;48368;53.406;6.214;2023-03-31T06:03:52;9.50;99.90
62339;DHT22;48368;53.406;6.214;2023-03-31T06:06:18;9.40;99.90
62339;DHT22;48368;53.406;6.214;2023-03-31T06:11:55;9.50;99.90
62339;DHT22;48368;53.406;6.214;2023-03-31T06:14:22;9.50;99.90
62339;DHT22;48368;53.406;6.214;2023-03-31T06:16:47;9.50;99.90
62339;DHT22;48368;53.406;6.214;2023-03-31T06:22:54;9.50;99.90
62339;DHT22;48368;53.406;6.214;2023-03-31T06:25:20;9.40;99.90
62339;DHT22;48368;53.406;6.214;2023-03-31T06:27:49;9.50;99.90
62339;DHT22;48368;53.406;6.214;2023-03-31T06:30:14;9.40;99.90
62339;DHT22;48368;53.406;6.214;2023-03-31T06:32:40;9.50;99.90
62339;DHT22;48368;53.406;6.214;2023-03-31T06:35:06;9.50;99.90
62339;DHT22;48368;53.406;6.214;2023-03-31T06:37:32;9.50;99.90
62339;DHT22;48368;53.406;6.214;2023-03-31T06:39:57;9.50;99.90
62339;DHT22;48368;53.406;6.214;2023-03-31T06:42:23;9.50;99.90
62339;DHT22;48368;53.406;6.214;2023-03-31T06:44:52;9.60;99.90
62339;DHT22;48368;53.406;6.214;2023-03-31T06:47:19;9.50;99.90
62339;DHT22;48368;53.406;6.214;2023-03-31T06:49:45;9.50;99.90
62339;DHT22;48368;53.406;6.214;2023-03-31T06:52:11;9.60;99.90
62339;DHT22;48368;53.406;6.214;2023-03-31T06:54:37;9.60;99.90
62339;DHT22;48368;53.406;6.214;2023-03-31T06:57:02;9.60;99.90
62339;DHT22;48368;53.406;6.214;2023-03-31T06:59:28;9.60;99.90
62339;DHT22;48368;53.406;6.214;2023-03-31T07:01:54;9.70;99.90
62339;DHT22;48368;53.406;6.214;2023-03-31T07:04:19;9.70;99.90
62339;DHT22;48368;53.406;6.214;2023-03-31T07:06:45;9.70;99.90
62339;DHT22;48368;53.406;6.214;2023-03-31T07:09:11;9.80;99.90
62339;DHT22;48368;53.406;6.214;2023-03-31T07:11:41;9.70;99.90
62339;DHT22;48368;53.406;6.214;2023-03-31T07:14:06;9.80;99.90
62339;DHT22;48368;53.406;6.214;2023-03-31T07:16:32;9.70;99.90
62339;DHT22;48368;53.406;6.214;2023-03-31T07:18:58;9.70;99.90
62339;DHT22;48368;53.406;6.214;2023-03-31T07:21:24;9.70;99.90
62339;DHT22;48368;53.406;6.214;2023-03-31T07:23:50;9.70;99.90
62339;DHT22;48368;53.406;6.214;2023-03-31T07:26:16;9.70;99.90
62339;DHT22;48368;53.406;6.214;2023-03-31T07:28:42;9.80;99.90
62339;DHT22;48368;53.406;6.214;2023-03-31T07:31:12;9.80;99.90
62339;DHT22;48368;53.406;6.214;2023-03-31T07:33:40;9.80;99.90
62339;DHT22;48368;53.406;6.214;2023-03-31T07:36:07;9.70;99.90
62339;DHT22;48368;53.406;6.214;2023-03-31T07:38:33;9.80;99.90
62339;DHT22;48368;53.406;6.214;2023-03-31T07:40:59;9.80;99.90
62339;DHT22;48368;53.406;6.214;2023-03-31T07:43:27;9.80;99.90
62339;DHT22;48368;53.406;6.214;2023-03-31T07:45:52;9.80;99.90
62339;DHT22;48368;53.406;6.214;2023-03-31T07:48:18;9.80;99.90
62339;DHT22;48368;53.406;6.214;2023-03-31T07:50:44;9.70;99.90
62339;DHT22;48368;53.406;6.214;2023-03-31T07:53:10;9.80;99.90
62339;DHT22;48368;53.406;6.214;2023-03-31T07:55:35;9.70;99.90
62339;DHT22;48368;53.406;6.214;2023-03-31T07:58:01;9.70;99.90
62339;DHT22;48368;53.406;6.214;2023-03-31T08:00:27;9.70;99.90
62339;DHT22;48368;53.406;6.214;2023-03-31T08:02:53;9.80;99.90
62339;DHT22;48368;53.406;6.214;2023-03-31T08:05:19;9.70;99.90
62339;DHT22;48368;53.406;6.214;2023-03-31T08:12:16;9.70;99.90
62339;DHT22;48368;53.406;6.214;2023-03-31T08:14:42;9.80;99.90
62339;DHT22;48368;53.406;6.214;2023-03-31T08:17:09;9.70;99.90
62339;DHT22;48368;53.406;6.214;2023-03-31T08:19:35;9.70;99.90
62339;DHT22;48368;53.406;6.214;2023-03-31T08:22:02;9.80;99.90
62339;DHT22;48368;53.406;6.214;2023-03-31T08:24:27;9.80;99.90
62339;DHT22;48368;53.406;6.214;2023-03-31T08:26:53;9.80;99.90
62339;DHT22;48368;53.406;6.214;2023-03-31T08:29:19;9.90;99.90
62339;DHT22;48368;53.406;6.214;2023-03-31T08:31:56;9.90;99.90
62339;DHT22;48368;53.406;6.214;2023-03-31T08:34:22;9.90;99.90
62339;DHT22;48368;53.406;6.214;2023-03-31T08:36:48;9.80;99.90
62339;DHT22;48368;53.406;6.214;2023-03-31T08:39:16;9.80;99.90
62339;DHT22;48368;53.406;6.214;2023-03-31T08:44:15;9.90;99.90
62339;DHT22;48368;53.406;6.214;2023-03-31T08:46:42;9.90;99.90
62339;DHT22;48368;53.406;6.214;2023-03-31T08:49:13;9.90;99.90
62339;DHT22;48368;53.406;6.214;2023-03-31T08:51:53;9.80;99.90
62339;DHT22;48368;53.406;6.214;2023-03-31T08:54:42;9.80;99.90
62339;DHT22;48368;53.406;6.214;2023-03-31T08:59:59;9.70;99.90
62339;DHT22;48368;53.406;6.214;2023-03-31T09:06:23;9.70;99.90
62339;DHT22;48368;53.406;6.214;2023-03-31T09:08:54;9.70;99.90
62339;DHT22;48368;53.406;6.214;2023-03-31T09:12:06;9.90;99.90
62339;DHT22;48368;53.406;6.214;2023-03-31T09:14:40;9.90;99.90
62339;DHT22;48368;53.406;6.214;2023-03-31T09:17:42;9.90;99.90
62339;DHT22;48368;53.406;6.214;2023-03-31T09:20:13;10.00;99.90
62339;DHT22;48368;53.406;6.214;2023-03-31T09:22:48;10.00;99.90
62339;DHT22;48368;53.406;6.214;2023-03-31T09:25:30;10.00;99.90
62339;DHT22;48368;53.406;6.214;2023-03-31T09:27:58;10.00;99.90
62339;DHT22;48368;53.406;6.214;2023-03-31T09:30:33;10.00;99.90
62339;DHT22;48368;53.406;6.214;2023-03-31T09:33:14;10.10;99.90
62339;DHT22;48368;53.406;6.214;2023-03-31T09:35:44;10.10;99.90
62339;DHT22;48368;53.406;6.214;2023-03-31T09:38:11;10.30;99.90
62339;DHT22;48368;53.406;6.214;2023-03-31T09:40:37;10.40;99.90
62339;DHT22;48368;53.406;6.214;2023-03-31T09:43:06;10.50;99.90
62339;DHT22;48368;53.406;6.214;2023-03-31T09:45:33;10.50;99.90
62339;DHT22;48368;53.406;6.214;2023-03-31T09:48:03;10.50;99.90
62339;DHT22;48368;53.406;6.214;2023-03-31T09:50:34;10.50;99.90
62339;DHT22;48368;53.406;6.214;2023-03-31T09:53:04;10.50;99.90
62339;DHT22;48368;53.406;6.214;2023-03-31T09:55:49;10.50;99.90
62339;DHT22;48368;53.406;6.214;2023-03-31T09:58:17;10.60;99.90
62339;DHT22;48368;53.406;6.214;2023-03-31T10:00:58;10.80;99.90
62339;DHT22;48368;53.406;6.214;2023-03-31T10:03:25;10.70;99.90
62339;DHT22;48368;53.406;6.214;2023-03-31T10:05:55;10.80;99.90
62339;DHT22;48368;53.406;6.214;2023-03-31T10:08:28;10.80;99.90
62339;DHT22;48368;53.406;6.214;2023-03-31T10:13:33;10.90;99.90
62339;DHT22;48368;53.406;6.214;2023-03-31T10:16:05;11.00;99.90
62339;DHT22;48368;53.406;6.214;2023-03-31T10:18:36;11.10;99.90
62339;DHT22;48368;53.406;6.214;2023-03-31T10:21:04;11.10;99.90
62339;DHT22;48368;53.406;6.214;2023-03-31T10:23:32;11.30;99.90
62339;DHT22;48368;53.406;6.214;2023-03-31T10:25:59;11.20;99.90
62339;DHT22;48368;53.406;6.214;2023-03-31T10:28:26;11.20;99.90
62339;DHT22;48368;53.406;6.214;2023-03-31T10:30:57;11.30;99.90
62339;DHT22;48368;53.406;6.214;2023-03-31T10:33:27;11.30;99.90
62339;DHT22;48368;53.406;6.214;2023-03-31T10:35:58;11.10;99.90
62339;DHT22;48368;53.406;6.214;2023-03-31T10:38:38;11.20;99.90
62339;DHT22;48368;53.406;6.214;2023-03-31T10:41:08;11.10;99.90
62339;DHT22;48368;53.406;6.214;2023-03-31T10:43:49;11.20;99.90
62339;DHT22;48368;53.406;6.214;2023-03-31T10:46:16;11.10;99.90
62339;DHT22;48368;53.406;6.214;2023-03-31T10:48:42;11.20;99.90
62339;DHT22;48368;53.406;6.214;2023-03-31T10:51:24;11.10;99.90
62339;DHT22;48368;53.406;6.214;2023-03-31T10:53:52;11.20;99.90
62339;DHT22;48368;53.406;6.214;2023-03-31T10:56:35;11.20;99.90
62339;DHT22;48368;53.406;6.214;2023-03-31T11:07:59;11.10;99.90
62339;DHT22;48368;53.406;6.214;2023-03-31T11:10:50;11.10;99.90
62339;DHT22;48368;53.406;6.214;2023-03-31T11:43:59;12.00;99.90
62339;DHT22;48368;53.406;6.214;2023-03-31T11:49:13;12.10;99.90
62339;DHT22;48368;53.406;6.214;2023-03-31T11:51:50;12.20;99.90
62339;DHT22;48368;53.406;6.214;2023-03-31T11:54:30;12.50;99.90
62339;DHT22;48368;53.406;6.214;2023-03-31T11:57:02;12.50;99.90
62339;DHT22;48368;53.406;6.214;2023-03-31T11:59:31;12.50;99.90
62339;DHT22;48368;53.406;6.214;2023-03-31T12:02:09;12.70;99.90
62339;DHT22;48368;53.406;6.214;2023-03-31T12:04:39;12.60;99.90
62339;DHT22;48368;53.406;6.214;2023-03-31T12:09:56;12.70;99.90
62339;DHT22;48368;53.406;6.214;2023-03-31T12:12:32;12.60;99.90
62339;DHT22;48368;53.406;6.214;2023-03-31T12:15:10;12.50;99.90
62339;DHT22;48368;53.406;6.214;2023-03-31T12:17:37;12.50;99.90
62339;DHT22;48368;53.406;6.214;2023-03-31T12:20:27;12.50;99.90
62339;DHT22;48368;53.406;6.214;2023-03-31T12:22:54;12.50;99.90
62339;DHT22;48368;53.406;6.214;2023-03-31T12:25:21;12.50;99.90
62339;DHT22;48368;53.406;6.214;2023-03-31T12:27:48;12.40;99.90
62339;DHT22;48368;53.406;6.214;2023-03-31T12:30:36;12.40;99.90
62339;DHT22;48368;53.406;6.214;2023-03-31T12:33:19;12.40;99.90
62339;DHT22;48368;53.406;6.214;2023-03-31T12:39:00;12.30;99.90
62339;DHT22;48368;53.406;6.214;2023-03-31T12:44:26;12.40;99.90
62339;DHT22;48368;53.406;6.214;2023-03-31T12:55:49;12.50;99.90
62339;DHT22;48368;53.406;6.214;2023-03-31T13:01:23;12.20;99.90
62339;DHT22;48368;53.406;6.214;2023-03-31T13:04:16;12.20;99.90
62339;DHT22;48368;53.406;6.214;2023-03-31T13:06:52;12.20;99.90
62339;DHT22;48368;53.406;6.214;2023-03-31T13:11:45;12.20;99.90
62339;DHT22;48368;53.406;6.214;2023-03-31T13:14:23;12.20;99.90
62339;DHT22;48368;53.406;6.214;2023-03-31T13:16:52;12.30;99.90
62339;DHT22;48368;53.406;6.214;2023-03-31T13:19:32;12.50;99.90
62339;DHT22;48368;53.406;6.214;2023-03-31T13:22:01;12.70;99.90
62339;DHT22;48368;53.406;6.214;2023-03-31T13:24:29;12.60;99.90
62339;DHT22;48368;53.406;6.214;2023-03-31T13:26:56;12.60;99.90
62339;DHT22;48368;53.406;6.214;2023-03-31T13:29:37;12.60;99.90
62339;DHT22;48368;53.406;6.214;2023-03-31T13:32:14;12.70;99.90
62339;DHT22;48368;53.406;6.214;2023-03-31T13:55:57;12.70;99.90
62339;DHT22;48368;53.406;6.214;2023-03-31T14:03:54;12.10;99.90
62339;DHT22;48368;53.406;6.214;2023-03-31T14:06:51;11.80;99.90
62339;DHT22;48368;53.406;6.214;2023-03-31T14:09:28;11.60;99.90
62339;DHT22;48368;53.406;6.214;2023-03-31T14:11:59;11.60;99.90
62339;DHT22;48368;53.406;6.214;2023-03-31T14:14:26;11.70;99.90
62339;DHT22;48368;53.406;6.214;2023-03-31T14:16:59;11.70;99.90
62339;DHT22;48368;53.406;6.214;2023-03-31T14:20:02;11.80;99.90
62339;DHT22;48368;53.406;6.214;2023-03-31T14:31:20;12.10;99.90
62339;DHT22;48368;53.406;6.214;2023-03-31T14:36:52;12.30;99.90
62339;DHT22;48368;53.406;6.214;2023-03-31T14:39:25;12.40;99.90
62339;DHT22;48368;53.406;6.214;2023-03-31T14:41:53;12.40;99.90
62339;DHT22;48368;53.406;6.214;2023-03-31T14:44:22;12.50;99.90
62339;DHT22;48368;53.406;6.214;2023-03-31T14:46:51;12.50;99.90
62339;DHT22;48368;53.406;6.214;2023-03-31T14:49:27;12.60;99.90
62339;DHT22;48368;53.406;6.214;2023-03-31T14:51:58;12.50;99.90
62339;DHT22;48368;53.406;6.214;2023-03-31T14:54:24;12.50;99.90
62339;DHT22;48368;53.406;6.214;2023-03-31T14:57:05;12.60;99.90
62339;DHT22;48368;53.406;6.214;2023-03-31T14:59:32;12.50;99.90
62339;DHT22;48368;53.406;6.214;2023-03-31T15:02:18;12.50;99.90
62339;DHT22;48368;53.406;6.214;2023-03-31T15:04:50;12.50;99.90
62339;DHT22;48368;53.406;6.214;2023-03-31T15:07:18;12.30;99.90
62339;DHT22;48368;53.406;6.214;2023-03-31T15:09:53;12.00;99.90
62339;DHT22;48368;53.406;6.214;2023-03-31T15:12:20;11.80;99.90
62339;DHT22;48368;53.406;6.214;2023-03-31T15:15:02;11.80;99.90
62339;DHT22;48368;53.406;6.214;2023-03-31T15:17:30;11.70;99.90
62339;DHT22;48368;53.406;6.214;2023-03-31T15:20:01;11.70;99.90
62339;DHT22;48368;53.406;6.214;2023-03-31T15:22:32;11.80;99.90
62339;DHT22;48368;53.406;6.214;2023-03-31T15:24:58;11.70;99.90
62339;DHT22;48368;53.406;6.214;2023-03-31T15:27:40;11.80;99.90
62339;DHT22;48368;53.406;6.214;2023-03-31T15:30:15;12.00;99.90
62339;DHT22;48368;53.406;6.214;2023-03-31T15:32:41;11.90;99.90
62339;DHT22;48368;53.406;6.214;2023-03-31T15:35:21;12.00;99.90
62339;DHT22;48368;53.406;6.214;2023-03-31T15:37:50;11.90;99.90
62339;DHT22;48368;53.406;6.214;2023-03-31T15:40:34;11.90;99.90
62339;DHT22;48368;53.406;6.214;2023-03-31T15:43:13;11.90;99.90
62339;DHT22;48368;53.406;6.214;2023-03-31T15:45:58;11.90;99.90
62339;DHT22;48368;53.406;6.214;2023-03-31T15:48:28;12.00;99.90
62339;DHT22;48368;53.406;6.214;2023-03-31T15:50:58;11.90;99.90
62339;DHT22;48368;53.406;6.214;2023-03-31T15:56:02;12.00;99.90
62339;DHT22;48368;53.406;6.214;2023-03-31T15:58:56;12.10;99.90
62339;DHT22;48368;53.406;6.214;2023-03-31T16:01:25;12.10;99.90
62339;DHT22;48368;53.406;6.214;2023-03-31T16:03:54;12.00;99.90
62339;DHT22;48368;53.406;6.214;2023-03-31T16:09:06;12.10;99.90
62339;DHT22;48368;53.406;6.214;2023-03-31T16:11:41;12.00;99.90
62339;DHT22;48368;53.406;6.214;2023-03-31T16:14:19;12.00;99.90
62339;DHT22;48368;53.406;6.214;2023-03-31T16:16:49;11.90;99.90
62339;DHT22;48368;53.406;6.214;2023-03-31T16:19:17;12.00;99.90
62339;DHT22;48368;53.406;6.214;2023-03-31T16:21:48;11.90;99.90
62339;DHT22;48368;53.406;6.214;2023-03-31T16:24:19;11.80;99.90
62339;DHT22;48368;53.406;6.214;2023-03-31T16:26:46;11.80;99.90
62339;DHT22;48368;53.406;6.214;2023-03-31T16:29:19;11.80;99.90
62339;DHT22;48368;53.406;6.214;2023-03-31T16:31:46;11.80;99.90
62339;DHT22;48368;53.406;6.214;2023-03-31T16:34:15;11.70;99.90
62339;DHT22;48368;53.406;6.214;2023-03-31T16:36:41;11.70;99.90
62339;DHT22;48368;53.406;6.214;2023-03-31T16:39:07;11.70;99.90
62339;DHT22;48368;53.406;6.214;2023-03-31T16:41:35;11.70;99.90
62339;DHT22;48368;53.406;6.214;2023-03-31T16:44:20;11.70;99.90
62339;DHT22;48368;53.406;6.214;2023-03-31T16:46:46;11.60;99.90
62339;DHT22;48368;53.406;6.214;2023-03-31T16:49:11;11.60;99.90
62339;DHT22;48368;53.406;6.214;2023-03-31T16:51:37;11.60;99.90
62339;DHT22;48368;53.406;6.214;2023-03-31T16:54:03;11.40;99.90
62339;DHT22;48368;53.406;6.214;2023-03-31T16:56:28;11.40;99.90
62339;DHT22;48368;53.406;6.214;2023-03-31T16:59:03;11.40;99.90
62339;DHT22;48368;53.406;6.214;2023-03-31T17:01:29;11.50;99.90
62339;DHT22;48368;53.406;6.214;2023-03-31T17:03:54;11.40;99.90
62339;DHT22;48368;53.406;6.214;2023-03-31T17:06:20;11.40;99.90
62339;DHT22;48368;53.406;6.214;2023-03-31T17:08:46;11.40;99.90
62339;DHT22;48368;53.406;6.214;2023-03-31T17:11:14;11.50;99.90
62339;DHT22;48368;53.406;6.214;2023-03-31T17:13:41;11.40;99.90
62339;DHT22;48368;53.406;6.214;2023-03-31T17:16:08;11.40;99.90
62339;DHT22;48368;53.406;6.214;2023-03-31T17:18:33;11.40;99.90
62339;DHT22;48368;53.406;6.214;2023-03-31T17:21:10;11.40;99.90
62339;DHT22;48368;53.406;6.214;2023-03-31T17:23:39;11.30;99.90
62339;DHT22;48368;53.406;6.214;2023-03-31T17:26:06;11.30;99.90
62339;DHT22;48368;53.406;6.214;2023-03-31T17:28:34;11.20;99.90
62339;DHT22;48368;53.406;6.214;2023-03-31T17:31:00;11.20;99.90
62339;DHT22;48368;53.406;6.214;2023-03-31T17:33:27;11.10;99.90
62339;DHT22;48368;53.406;6.214;2023-03-31T17:38:20;11.10;99.90
62339;DHT22;48368;53.406;6.214;2023-03-31T17:40:47;11.10;99.90
62339;DHT22;48368;53.406;6.214;2023-03-31T17:43:12;11.10;99.90
62339;DHT22;48368;53.406;6.214;2023-03-31T17:45:38;11.10;99.90
62339;DHT22;48368;53.406;6.214;2023-03-31T17:48:04;11.10;99.90
62339;DHT22;48368;53.406;6.214;2023-03-31T17:50:33;11.00;99.90
62339;DHT22;48368;53.406;6.214;2023-03-31T17:52:59;11.00;99.90
62339;DHT22;48368;53.406;6.214;2023-03-31T17:55:25;11.00;99.90
62339;DHT22;48368;53.406;6.214;2023-03-31T17:57:51;11.00;99.90
62339;DHT22;48368;53.406;6.214;2023-03-31T18:00:17;11.00;99.90
62339;DHT22;48368;53.406;6.214;2023-03-31T18:02:44;11.00;99.90
62339;DHT22;48368;53.406;6.214;2023-03-31T18:05:13;10.90;99.90
62339;DHT22;48368;53.406;6.214;2023-03-31T18:07:58;11.10;99.90
62339;DHT22;48368;53.406;6.214;2023-03-31T18:10:26;10.90;99.90
62339;DHT22;48368;53.406;6.214;2023-03-31T18:12:52;10.90;99.90
62339;DHT22;48368;53.406;6.214;2023-03-31T18:15:22;11.00;99.90
62339;DHT22;48368;53.406;6.214;2023-03-31T18:17:48;10.90;99.90
62339;DHT22;48368;53.406;6.214;2023-03-31T18:20:13;11.00;99.90
62339;DHT22;48368;53.406;6.214;2023-03-31T18:22:39;10.90;99.90
62339;DHT22;48368;53.406;6.214;2023-03-31T18:25:05;10.90;99.90
62339;DHT22;48368;53.406;6.214;2023-03-31T18:27:31;11.00;99.90
62339;DHT22;48368;53.406;6.214;2023-03-31T18:29:57;10.90;99.90
62339;DHT22;48368;53.406;6.214;2023-03-31T18:32:22;10.90;99.90
62339;DHT22;48368;53.406;6.214;2023-03-31T18:34:48;10.90;99.90
62339;DHT22;48368;53.406;6.214;2023-03-31T18:37:20;10.90;99.90
62339;DHT22;48368;53.406;6.214;2023-03-31T18:39:48;10.80;99.90
62339;DHT22;48368;53.406;6.214;2023-03-31T18:42:13;10.80;99.90
62339;DHT22;48368;53.406;6.214;2023-03-31T18:44:39;10.80;99.90
62339;DHT22;48368;53.406;6.214;2023-03-31T18:47:05;10.80;99.90
62339;DHT22;48368;53.406;6.214;2023-03-31T18:49:31;10.80;99.90